createdAt,value
2022-12-04T00:02:00.695Z,96626.56
2022-12-04T00:04:28.975Z,96628.69
2022-12-04T00:06:59.017Z,96621.97
2022-12-04T00:09:27.687Z,96621.97
2022-12-04T00:11:55.937Z,96623.31
2022-12-04T00:14:24.199Z,96635.44
2022-12-04T00:16:53.043Z,96626.28
2022-12-04T00:19:22.779Z,96620.63
2022-12-04T00:21:51.599Z,96610.69
2022-12-04T00:24:20.067Z,96610.13
2022-12-04T00:26:48.652Z,96590.47
2022-12-04T00:29:17.435Z,96595.34
2022-12-04T00:31:46.282Z,96606.09
2022-12-04T00:34:14.678Z,96604.75
2022-12-04T00:36:44.783Z,96606.38
2022-12-04T00:39:13.115Z,96609.31
2022-12-04T00:41:41.562Z,96607.44
2022-12-04T00:44:09.844Z,96602.06
2022-12-04T00:46:38.102Z,96604.75
2022-12-04T00:49:06.405Z,96605.84
2022-12-04T00:51:34.673Z,96605.59
2022-12-04T00:54:04.601Z,96610.69
2022-12-04T00:56:33.162Z,96611.22
2022-12-04T00:59:02.332Z,96621.44
2022-12-04T01:01:32.039Z,96616.34
2022-12-04T01:04:00.585Z,96619.56
2022-12-04T01:06:32.923Z,96618.22
2022-12-04T01:09:06.559Z,96607.16
2022-12-04T01:11:35.321Z,96609.31
2022-12-04T01:14:03.925Z,96603.41
2022-12-04T01:16:35.647Z,96611.22
2022-12-04T01:19:05.486Z,96612.00
2022-12-04T01:21:34.062Z,96607.97
2022-12-04T01:24:04.015Z,96608.53
2022-12-04T01:26:32.389Z,96597.75
2022-12-04T01:29:00.697Z,96599.06
2022-12-04T01:31:29.136Z,96610.16
2022-12-04T01:33:57.680Z,96596.97
2022-12-04T01:36:29.215Z,96595.31
2022-12-04T01:38:58.315Z,96593.97
2022-12-04T01:41:32.274Z,96591.84
2022-12-04T01:44:17.603Z,96595.06
2022-12-04T01:46:48.308Z,96591.56
2022-12-04T01:49:22.867Z,96591.81
2022-12-04T01:52:00.100Z,96598.53
2022-12-04T01:54:33.447Z,96594.50
2022-12-04T01:57:08.270Z,96600.44
2022-12-04T01:59:42.643Z,96601.50
2022-12-04T02:02:15.780Z,96604.19
2022-12-04T02:04:45.338Z,96610.94
2022-12-04T02:07:13.826Z,96609.03
2022-12-04T02:09:45.525Z,96599.34
2022-12-04T02:12:24.975Z,96603.13
2022-12-04T02:15:09.355Z,96595.84
2022-12-04T02:17:49.018Z,96595.84
2022-12-04T02:20:34.567Z,96587.47
2022-12-04T02:23:44.753Z,96581.03
2022-12-04T02:26:34.514Z,96579.41
2022-12-04T02:29:13.118Z,96581.28
2022-12-04T02:31:52.551Z,96576.72
2022-12-04T02:34:29.588Z,96577.53
2022-12-04T02:37:03.972Z,96563.53
2022-12-04T02:39:39.235Z,96554.09
2022-12-04T02:42:15.674Z,96553.56
2022-12-04T02:44:51.439Z,96556.78
2022-12-04T02:47:24.393Z,96553.03
2022-12-04T02:49:59.560Z,96554.63
2022-12-04T02:52:34.793Z,96557.28
2022-12-04T02:55:09.298Z,96550.84
2022-12-04T02:57:44.222Z,96551.91
2022-12-04T03:00:16.192Z,96547.66
2022-12-04T03:02:54.421Z,96544.97
2022-12-04T03:05:31.350Z,96547.38
2022-12-04T03:08:04.803Z,96543.31
2022-12-04T03:10:40.174Z,96544.41
2022-12-04T03:13:14.713Z,96543.09
2022-12-04T03:15:52.014Z,96548.19
2022-12-04T03:18:44.776Z,96541.16
2022-12-04T03:21:20.570Z,96541.16
2022-12-04T03:23:56.129Z,96526.94
2022-12-04T03:26:30.461Z,96526.66
2022-12-04T03:29:09.098Z,96528.25
2022-12-04T03:31:46.334Z,96527.97
2022-12-04T03:34:23.614Z,96522.06
2022-12-04T03:36:59.149Z,96522.88
2022-12-04T03:39:36.943Z,96515.59
2022-12-04T03:42:15.021Z,96507.78
2022-12-04T03:44:50.241Z,96509.41
2022-12-04T03:47:30.357Z,96510.47
2022-12-04T03:50:09.023Z,96515.06
2022-12-04T03:52:49.667Z,96511.81
2022-12-04T03:55:27.640Z,96516.38
2022-12-04T03:58:05.866Z,96514.50
2022-12-04T04:00:38.747Z,96504.00
2022-12-04T04:03:15.314Z,96516.34
2022-12-04T04:05:49.137Z,96513.38
2022-12-04T04:08:27.296Z,96511.50
2022-12-04T04:11:03.598Z,96509.59
2022-12-04T04:13:57.190Z,96524.69
2022-12-04T04:16:47.809Z,96532.53
2022-12-04T04:19:38.678Z,96539.22
2022-12-04T04:22:29.312Z,96544.34
2022-12-04T04:25:05.269Z,96541.13
2022-12-04T04:27:33.567Z,96538.41
2022-12-04T04:30:02.595Z,96534.91
2022-12-04T04:32:41.868Z,96529.25
2022-12-04T04:35:22.043Z,96525.50
2022-12-04T04:38:02.339Z,96529.53
2022-12-04T04:40:42.044Z,96521.44
2022-12-04T04:43:18.538Z,96517.72
2022-12-04T04:45:51.395Z,96518.78
2022-12-04T04:48:28.832Z,96509.66
2022-12-04T04:51:01.188Z,96520.69
2022-12-04T04:53:37.707Z,96515.53
2022-12-04T04:56:08.377Z,96519.59
2022-12-04T04:58:36.819Z,96518.22
2022-12-04T05:01:10.486Z,96518.22
2022-12-04T05:03:39.481Z,96522.03
2022-12-04T05:06:09.817Z,96517.44
2022-12-04T05:08:38.927Z,96517.16
2022-12-04T05:11:08.049Z,96516.38
2022-12-04T05:13:36.363Z,96517.97
2022-12-04T05:16:08.501Z,96506.13
2022-12-04T05:18:37.471Z,96513.09
2022-12-04T05:21:09.555Z,96510.13
2022-12-04T05:23:37.848Z,96522.56
2022-12-04T05:26:07.151Z,96519.88
2022-12-04T05:28:35.477Z,96525.50
2022-12-04T05:31:05.703Z,96536.78
2022-12-04T05:33:34.286Z,96537.34
2022-12-04T05:36:05.936Z,96533.81
2022-12-04T05:38:36.022Z,96537.84
2022-12-04T05:41:07.022Z,96535.16
2022-12-04T05:43:36.457Z,96537.34
2022-12-04T05:46:06.675Z,96529.75
2022-12-04T05:48:36.257Z,96524.38
2022-12-04T05:51:07.999Z,96535.44
2022-12-04T05:53:38.365Z,96526.53
2022-12-04T05:56:08.672Z,96524.38
2022-12-04T05:58:38.178Z,96518.72
2022-12-04T06:01:14.320Z,96516.31
2022-12-04T06:03:42.879Z,96523.31
2022-12-04T06:06:21.436Z,96518.22
2022-12-04T06:08:54.424Z,96530.38
2022-12-04T06:11:26.024Z,96533.59
2022-12-04T06:13:54.755Z,96535.75
2022-12-04T06:16:25.435Z,96540.56
2022-12-04T06:18:57.396Z,96549.44
2022-12-04T06:21:29.448Z,96551.06
2022-12-04T06:23:59.918Z,96553.75
2022-12-04T06:26:28.309Z,96544.56
2022-12-04T06:28:58.359Z,96538.38
2022-12-04T06:31:30.400Z,96545.69
2022-12-04T06:33:59.549Z,96542.72
2022-12-04T06:36:28.343Z,96536.53
2022-12-04T06:38:59.403Z,96536.53
2022-12-04T06:41:29.230Z,96532.47
2022-12-04T06:43:58.706Z,96527.34
2022-12-04T06:46:30.403Z,96531.94
2022-12-04T06:49:01.261Z,96521.44
2022-12-04T06:51:34.894Z,96519.28
2022-12-04T06:54:05.465Z,96519.03
2022-12-04T06:56:35.610Z,96511.47
2022-12-04T06:59:06.334Z,96489.13
2022-12-04T07:01:36.298Z,96486.44
2022-12-04T07:04:05.883Z,96492.91
2022-12-04T07:06:36.579Z,96500.94
2022-12-04T07:09:09.847Z,96507.44
2022-12-04T07:11:39.976Z,96509.31
2022-12-04T07:14:09.167Z,96501.50
2022-12-04T07:16:41.246Z,96506.09
2022-12-04T07:19:11.223Z,96516.84
2022-12-04T07:21:39.850Z,96514.13
2022-12-04T07:24:15.758Z,96503.34
2022-12-04T07:26:44.519Z,96496.88
2022-12-04T07:29:15.225Z,96497.44
2022-12-04T07:31:44.688Z,96509.28
2022-12-04T07:34:13.185Z,96518.66
2022-12-04T07:36:43.991Z,96519.75
2022-12-04T07:39:16.831Z,96524.06
2022-12-04T07:41:47.238Z,96529.97
2022-12-04T07:44:16.372Z,96536.94
2022-12-04T07:46:44.802Z,96533.41
2022-12-04T07:49:14.015Z,96527.94
2022-12-04T07:51:42.435Z,96530.03
2022-12-04T07:54:10.755Z,96528.72
2022-12-04T07:56:40.523Z,96543.03
2022-12-04T07:59:10.587Z,96538.97
2022-12-04T08:01:39.206Z,96549.16
2022-12-04T08:04:07.659Z,96542.38
2022-12-04T08:06:36.245Z,96557.97
2022-12-04T08:09:09.873Z,96562.84
2022-12-04T08:11:40.269Z,96555.81
2022-12-04T08:14:09.779Z,96557.69
2022-12-04T08:16:38.344Z,96546.63
2022-12-04T08:19:07.646Z,96538.00
2022-12-04T08:21:36.154Z,96532.06
2022-12-04T08:24:04.839Z,96528.84
2022-12-04T08:26:34.302Z,96519.13
2022-12-04T08:29:06.746Z,96524.81
2022-12-04T08:31:37.345Z,96506.44
2022-12-04T08:34:08.635Z,96500.72
2022-12-04T08:36:37.022Z,96489.84
2022-12-04T08:39:06.154Z,96492.53
2022-12-04T08:41:34.537Z,96494.06
2022-12-04T08:44:04.295Z,96492.16
2022-12-04T08:46:33.035Z,96492.44
2022-12-04T08:49:01.444Z,96505.25
2022-12-04T08:51:34.527Z,96511.16
2022-12-04T08:54:05.715Z,96526.84
2022-12-04T08:56:36.071Z,96535.44
2022-12-04T08:59:06.942Z,96536.00
2022-12-04T09:01:35.305Z,96545.41
2022-12-04T09:04:04.032Z,96551.63
2022-12-04T09:06:32.492Z,96541.31
2022-12-04T09:09:01.494Z,96544.16
2022-12-04T09:11:32.389Z,96547.09
2022-12-04T09:14:02.970Z,96541.56
2022-12-04T09:16:34.587Z,96526.44
2022-12-04T09:19:05.708Z,96516.66
2022-12-04T09:21:34.140Z,96515.13
2022-12-04T09:24:02.770Z,96514.56
2022-12-04T09:26:33.720Z,96503.69
2022-12-04T09:29:04.830Z,96507.91
2022-12-04T09:31:36.660Z,96506.75
2022-12-04T09:34:05.586Z,96527.00
2022-12-04T09:36:34.192Z,96514.50
2022-12-04T09:39:02.591Z,96504.63
2022-12-04T09:41:55.302Z,96509.19
2022-12-04T09:44:30.631Z,96506.47
2022-12-04T09:47:06.080Z,96505.47
2022-12-04T09:49:43.169Z,96504.47
2022-12-04T09:52:27.436Z,96494.69
2022-12-04T09:54:58.134Z,96490.47
2022-12-04T09:57:39.374Z,96489.13
2022-12-04T10:00:14.495Z,96485.97
2022-12-04T10:02:51.365Z,96481.88
2022-12-04T10:05:26.384Z,96472.22
2022-12-04T10:08:07.684Z,96443.91
2022-12-04T10:10:43.537Z,96445.16
2022-12-04T10:13:45.214Z,96438.09
2022-12-04T10:16:25.600Z,96438.28
2022-12-04T10:19:09.332Z,96436.06
2022-12-04T10:21:52.695Z,96426.47
2022-12-04T10:24:39.236Z,96432.63
2022-12-04T10:27:15.823Z,96438.75
2022-12-04T10:29:50.147Z,96440.00
2022-12-04T10:32:24.389Z,96441.81
2022-12-04T10:34:59.476Z,96439.06
2022-12-04T10:37:29.369Z,96433.38
2022-12-04T10:40:09.130Z,96430.47
2022-12-04T10:42:47.233Z,96419.44
2022-12-04T10:45:16.381Z,96429.97
2022-12-04T10:47:50.818Z,96426.72
2022-12-04T10:50:24.120Z,96427.16
2022-12-04T10:52:52.779Z,96431.06
2022-12-04T10:55:32.917Z,96438.06
2022-12-04T10:58:02.756Z,96445.75
2022-12-04T11:00:34.537Z,96438.00
2022-12-04T11:03:11.524Z,96434.41
2022-12-04T11:05:55.343Z,96434.59
2022-12-04T11:08:29.142Z,96429.84
2022-12-04T11:11:03.007Z,96426.81
2022-12-04T11:13:31.465Z,96417.59
2022-12-04T11:16:04.684Z,96403.78
2022-12-04T11:18:38.533Z,96403.09
2022-12-04T11:21:18.245Z,96395.69
2022-12-04T11:23:49.876Z,96379.81
2022-12-04T11:26:31.673Z,96371.34
2022-12-04T11:29:03.292Z,96369.00
2022-12-04T11:31:33.118Z,96371.41
2022-12-04T11:34:06.595Z,96368.69
2022-12-04T11:36:41.908Z,96362.59
2022-12-04T11:39:20.102Z,96352.59
2022-12-04T11:41:49.792Z,96362.41
2022-12-04T11:44:27.706Z,96384.19
2022-12-04T11:46:59.360Z,96381.25
2022-12-04T11:49:28.795Z,96376.47
2022-12-04T11:52:18.125Z,96384.78
2022-12-04T11:55:01.489Z,96381.66
2022-12-04T11:57:44.356Z,96371.41
2022-12-04T12:00:17.087Z,96374.91
2022-12-04T12:03:07.637Z,96382.75
2022-12-04T12:06:12.660Z,96375.72
2022-12-04T12:09:12.785Z,96370.19
2022-12-04T12:11:50.827Z,96370.69
2022-12-04T12:14:30.399Z,96355.84
2022-12-04T12:17:12.618Z,96352.38
2022-12-04T12:20:14.465Z,96350.75
2022-12-04T12:23:03.905Z,96352.06
2022-12-04T12:25:51.771Z,96354.06
2022-12-04T12:28:42.881Z,96353.09
2022-12-04T12:31:53.647Z,96348.13
2022-12-04T12:34:35.473Z,96350.41
2022-12-04T12:37:15.408Z,96332.09
2022-12-04T12:39:53.143Z,96330.09
2022-12-04T12:42:32.068Z,96333.91
2022-12-04T12:45:07.464Z,96321.56
2022-12-04T12:47:43.863Z,96324.03
2022-12-04T12:50:18.623Z,96330.88
2022-12-04T12:52:56.973Z,96326.69
2022-12-04T12:55:31.650Z,96323.88
2022-12-04T12:58:14.339Z,96326.78
2022-12-04T13:00:50.133Z,96313.13
2022-12-04T13:03:32.973Z,96305.78
2022-12-04T13:06:10.617Z,96295.00
2022-12-04T13:08:49.312Z,96292.41
2022-12-04T13:11:20.895Z,96297.03
2022-12-04T13:13:55.205Z,96283.97
2022-12-04T13:16:29.426Z,96287.34
2022-12-04T13:19:10.667Z,96287.91
2022-12-04T13:21:47.403Z,96284.47
2022-12-04T13:24:57.700Z,96294.34
2022-12-04T13:27:46.341Z,96293.22
2022-12-04T13:30:21.590Z,96287.91
2022-12-04T13:33:23.666Z,96286.19
2022-12-04T13:36:36.744Z,96290.44
2022-12-04T13:39:36.389Z,96297.28
2022-12-04T13:42:07.784Z,96305.13
2022-12-04T13:44:37.351Z,96295.38
2022-12-04T13:47:09.681Z,96291.88
2022-12-04T13:49:42.170Z,96291.69
2022-12-04T13:52:25.131Z,96300.41
2022-12-04T13:54:59.532Z,96294.22
2022-12-04T13:57:29.875Z,96293.56
2022-12-04T14:00:08.263Z,96285.44
2022-12-04T14:02:52.875Z,96290.88
2022-12-04T14:05:31.105Z,96288.88
2022-12-04T14:08:07.932Z,96293.38
2022-12-04T14:10:40.265Z,96286.09
2022-12-04T14:13:22.406Z,96290.69
2022-12-04T14:16:03.669Z,96284.16
2022-12-04T14:18:33.880Z,96281.56
2022-12-04T14:21:06.514Z,96277.75
2022-12-04T14:23:40.136Z,96283.78
2022-12-04T14:26:37.330Z,96287.41
2022-12-04T14:29:39.097Z,96280.97
2022-12-04T14:32:17.906Z,96273.75
2022-12-04T14:34:48.691Z,96275.50
2022-12-04T14:37:27.900Z,96282.28
2022-12-04T14:39:59.257Z,96282.59
2022-12-04T14:42:34.621Z,96289.13
2022-12-04T14:45:07.713Z,96293.72
2022-12-04T14:47:47.912Z,96286.72
2022-12-04T14:50:35.368Z,96288.31
2022-12-04T14:53:17.788Z,96295.94
2022-12-04T14:56:07.059Z,96300.25
2022-12-04T14:58:39.818Z,96302.97
2022-12-04T15:01:28.325Z,96300.88
2022-12-04T15:04:00.408Z,96301.16
2022-12-04T15:06:32.754Z,96299.53
2022-12-04T15:09:16.812Z,96300.66
2022-12-04T15:12:09.376Z,96303.88
2022-12-04T15:14:43.260Z,96310.38
2022-12-04T15:17:13.223Z,96308.47
2022-12-04T15:19:42.384Z,96303.03
2022-12-04T15:22:24.913Z,96305.75
2022-12-04T15:24:55.099Z,96304.38
2022-12-04T15:27:32.385Z,96302.16
2022-12-04T15:30:04.445Z,96302.97
2022-12-04T15:32:34.546Z,96309.97
2022-12-04T15:35:09.029Z,96301.84
2022-12-04T15:37:39.218Z,96295.63
2022-12-04T15:40:11.872Z,96299.13
2022-12-04T15:42:40.135Z,96294.53
2022-12-04T15:45:29.806Z,96289.94
2022-12-04T15:47:58.717Z,96286.22
2022-12-04T15:50:31.162Z,96277.91
2022-12-04T15:53:09.444Z,96274.41
2022-12-04T15:55:47.938Z,96272.19
2022-12-04T15:58:23.321Z,96276.50
2022-12-04T16:00:57.948Z,96283.00
2022-12-04T16:03:31.909Z,96288.41
2022-12-04T16:06:15.429Z,96300.66
2022-12-04T16:08:48.204Z,96304.66
2022-12-04T16:11:33.793Z,96311.38
2022-12-04T16:14:16.353Z,96314.88
2022-12-04T16:16:47.027Z,96320.59
2022-12-04T16:19:32.834Z,96322.72
2022-12-04T16:22:01.792Z,96339.44
2022-12-04T16:24:31.778Z,96340.28
2022-12-04T16:27:02.061Z,96346.78
2022-12-04T16:29:31.509Z,96344.97
2022-12-04T16:32:03.257Z,96350.78
2022-12-04T16:34:32.278Z,96355.06
2022-12-04T16:37:01.971Z,96353.41
2022-12-04T16:39:32.004Z,96358.00
2022-12-04T16:42:02.358Z,96351.97
2022-12-04T16:44:30.945Z,96355.78
2022-12-04T16:46:59.298Z,96345.38
2022-12-04T16:49:27.915Z,96340.66
2022-12-04T16:51:56.222Z,96347.78
2022-12-04T16:54:24.821Z,96352.06
2022-12-04T16:56:54.689Z,96342.78
2022-12-04T16:59:24.347Z,96348.63
2022-12-04T17:01:54.539Z,96355.13
2022-12-04T17:04:23.173Z,96346.22
2022-12-04T17:06:51.565Z,96341.00
2022-12-04T17:09:20.073Z,96348.22
2022-12-04T17:11:48.476Z,96351.94
2022-12-04T17:14:18.190Z,96357.34
2022-12-04T17:16:47.343Z,96342.13
2022-12-04T17:19:16.122Z,96335.00
2022-12-04T17:21:45.473Z,96342.81
2022-12-04T17:24:13.826Z,96352.56
2022-12-04T17:26:42.144Z,96351.44
2022-12-04T17:29:10.453Z,96342.81
2022-12-04T17:31:40.206Z,96338.72
2022-12-04T17:34:08.587Z,96343.25
2022-12-04T17:36:36.918Z,96347.25
2022-12-04T17:39:07.311Z,96343.25
2022-12-04T17:41:35.992Z,96354.38
2022-12-04T17:44:04.615Z,96349.84
2022-12-04T17:46:33.248Z,96354.44
2022-12-04T17:49:07.130Z,96356.34
2022-12-04T17:51:36.177Z,96361.06
2022-12-04T17:54:06.435Z,96360.94
2022-12-04T17:56:35.408Z,96375.72
2022-12-04T17:59:04.627Z,96376.41
2022-12-04T18:01:33.569Z,96372.69
2022-12-04T18:04:07.195Z,96376.56
2022-12-04T18:06:38.775Z,96373.38
2022-12-04T18:09:09.254Z,96362.69
2022-12-04T18:11:42.334Z,96353.72
2022-12-04T18:14:13.654Z,96363.44
2022-12-04T18:16:44.938Z,96356.69
2022-12-04T18:19:16.099Z,96364.03
2022-12-04T18:21:44.757Z,96362.84
2022-12-04T18:24:14.041Z,96358.63
2022-12-04T18:26:45.350Z,96353.31
2022-12-04T18:29:17.706Z,96357.44
2022-12-04T18:31:47.081Z,96356.31
2022-12-04T18:34:16.834Z,96364.31
2022-12-04T18:36:46.288Z,96367.19
2022-12-04T18:39:17.539Z,96366.72
2022-12-04T18:41:46.188Z,96375.66
2022-12-04T18:44:15.718Z,96366.53
2022-12-04T18:46:44.268Z,96367.41
2022-12-04T18:49:13.139Z,96362.81
2022-12-04T18:51:49.148Z,96376.09
2022-12-04T18:54:21.290Z,96366.59
2022-12-04T18:56:50.619Z,96372.97
2022-12-04T18:59:22.038Z,96379.31
2022-12-04T19:01:51.099Z,96376.91
2022-12-04T19:04:23.158Z,96373.16
2022-12-04T19:06:55.934Z,96368.94
2022-12-04T19:10:02.140Z,96370.00
2022-12-04T19:12:16.597Z,96368.81
2022-12-04T19:14:44.912Z,96384.72
2022-12-04T19:17:13.237Z,96378.00
2022-12-04T19:19:41.580Z,96383.09
2022-12-04T19:22:11.536Z,96389.75
2022-12-04T19:24:40.213Z,96392.38
2022-12-04T19:27:11.674Z,96388.78
2022-12-04T19:29:41.444Z,96401.72
2022-12-04T19:32:12.075Z,96403.63
2022-12-04T19:34:41.206Z,96406.84
2022-12-04T19:37:10.939Z,96407.72
2022-12-04T19:39:39.595Z,96414.19
2022-12-04T19:42:08.566Z,96411.44
2022-12-04T19:44:48.405Z,96412.56
2022-12-04T19:47:17.999Z,96428.06
2022-12-04T19:49:46.672Z,96429.94
2022-12-04T19:52:17.110Z,96432.63
2022-12-04T19:54:45.957Z,96429.22
2022-12-04T19:57:14.771Z,96439.78
2022-12-04T19:59:46.492Z,96436.03
2022-12-04T20:02:16.319Z,96446.03
2022-12-04T20:04:45.219Z,96442.78
2022-12-04T20:07:15.215Z,96447.59
2022-12-04T20:09:48.786Z,96448.97
2022-12-04T20:12:20.247Z,96453.00
2022-12-04T20:14:48.653Z,96452.47
2022-12-04T20:17:16.946Z,96454.59
2022-12-04T20:19:45.286Z,96457.06
2022-12-04T20:22:14.937Z,96459.91
2022-12-04T20:24:43.882Z,96457.53
2022-12-04T20:27:12.176Z,96470.50
2022-12-04T20:29:40.491Z,96465.66
2022-12-04T20:32:08.763Z,96467.56
2022-12-04T20:34:43.098Z,96475.97
2022-12-04T20:37:12.293Z,96480.34
2022-12-04T20:39:42.208Z,96487.81
2022-12-04T20:42:10.534Z,96487.25
2022-12-04T20:44:38.801Z,96495.97
2022-12-04T20:47:07.129Z,96485.69
2022-12-04T20:49:35.556Z,96490.59
2022-12-04T20:52:04.755Z,96492.72
2022-12-04T20:54:39.405Z,96501.34
2022-12-04T20:57:10.905Z,96490.56
2022-12-04T20:59:39.469Z,96497.56
2022-12-04T21:02:07.932Z,96499.16
2022-12-04T21:04:38.874Z,96496.41
2022-12-04T21:07:08.161Z,96504.56
2022-12-04T21:09:36.755Z,96506.69
2022-12-04T21:12:27.302Z,96506.41
2022-12-04T21:15:14.920Z,96503.94
2022-12-04T21:17:43.526Z,96510.38
2022-12-04T21:20:12.965Z,96507.94
2022-12-04T21:22:41.677Z,96508.22
2022-12-04T21:25:10.502Z,96522.28
2022-12-04T21:27:38.833Z,96528.00
2022-12-04T21:30:10.699Z,96528.81
2022-12-04T21:32:39.255Z,96531.75
2022-12-04T21:35:08.427Z,96529.94
2022-12-04T21:37:37.168Z,96534.78
2022-12-04T21:40:06.742Z,96529.88
2022-12-04T21:42:35.469Z,96520.44
2022-12-04T21:45:08.859Z,96525.03
2022-12-04T21:47:37.939Z,96512.63
2022-12-04T21:50:08.341Z,96518.28
2022-12-04T21:52:36.842Z,96531.22
2022-12-04T21:55:06.143Z,96529.59
2022-12-04T21:57:34.817Z,96537.25
2022-12-04T22:00:04.052Z,96532.47
2022-12-04T22:02:36.359Z,96527.88
2022-12-04T22:05:05.292Z,96536.75
2022-12-04T22:07:33.883Z,96539.22
2022-12-04T22:10:08.624Z,96535.22
2022-12-04T22:12:49.566Z,96541.69
2022-12-04T22:15:18.908Z,96543.59
2022-12-04T22:17:48.620Z,96543.31
2022-12-04T22:20:17.599Z,96545.75
2022-12-04T22:22:46.233Z,96545.47
2022-12-04T22:25:15.221Z,96552.53
2022-12-04T22:27:43.591Z,96552.44
2022-12-04T22:30:14.404Z,96550.56
2022-12-04T22:32:43.008Z,96551.41
2022-12-04T22:35:13.018Z,96559.28
2022-12-04T22:37:44.478Z,96566.84
2022-12-04T22:40:14.717Z,96565.75
2022-12-04T22:42:43.087Z,96560.81
2022-12-04T22:45:12.441Z,96553.94
2022-12-04T22:47:41.373Z,96567.66
2022-12-04T22:50:13.068Z,96565.75
2022-12-04T22:52:41.386Z,96567.03
2022-12-04T22:55:10.264Z,96565.66
2022-12-04T22:57:38.914Z,96566.69
2022-12-04T23:00:10.048Z,96568.06
2022-12-04T23:02:38.481Z,96575.16
2022-12-04T23:05:07.024Z,96575.44
2022-12-04T23:07:37.445Z,96573.03
2022-12-04T23:10:07.859Z,96572.22
2022-12-04T23:12:36.202Z,96578.72
2022-12-04T23:15:04.828Z,96585.84
2022-12-04T23:17:33.196Z,96584.16
2022-12-04T23:20:01.905Z,96589.84
2022-12-04T23:22:30.525Z,96597.63
2022-12-04T23:25:00.418Z,96593.59
2022-12-04T23:27:29.118Z,96597.94
2022-12-04T23:29:57.412Z,96601.50
2022-12-04T23:32:26.144Z,96599.88
2022-12-04T23:34:54.757Z,96609.03
2022-12-04T23:37:23.081Z,96601.50
2022-12-04T23:39:51.695Z,96612.78
2022-12-04T23:42:21.397Z,96613.81
2022-12-04T23:44:50.025Z,96616.53
2022-12-04T23:47:18.445Z,96619.03
2022-12-04T23:49:47.210Z,96612.84
2022-12-04T23:52:15.776Z,96616.03
2022-12-04T23:54:44.223Z,96618.25
2022-12-04T23:57:12.572Z,96623.03
2022-12-04T23:59:42.369Z,96623.09
